sensor_id;sensor_type;location;lat;lon;timestamp;pressure;altitude;pressure_sealevel;temperature;humidity
79269;BME280;68714;48.586;7.772;2023-05-09T00:00:00;100125.66;;;17.57;65.07
79269;BME280;68714;48.586;7.772;2023-05-09T00:02:26;100124.13;;;17.53;65.04
79269;BME280;68714;48.586;7.772;2023-05-09T00:04:53;100123.47;;;17.50;65.37
79269;BME280;68714;48.586;7.772;2023-05-09T00:07:19;100115.56;;;17.48;65.40
79269;BME280;68714;48.586;7.772;2023-05-09T00:09:45;100114.84;;;17.46;65.43
79269;BME280;68714;48.586;7.772;2023-05-09T00:12:10;100113.22;;;17.43;65.48
79269;BME280;68714;48.586;7.772;2023-05-09T00:14:36;100113.31;;;17.42;65.37
79269;BME280;68714;48.586;7.772;2023-05-09T00:17:03;100114.16;;;17.42;65.52
79269;BME280;68714;48.586;7.772;2023-05-09T00:19:28;100111.28;;;17.45;65.37
79269;BME280;68714;48.586;7.772;2023-05-09T00:21:54;100112.91;;;17.48;65.64
79269;BME280;68714;48.586;7.772;2023-05-09T00:24:19;100113.56;;;17.52;65.46
79269;BME280;68714;48.586;7.772;2023-05-09T00:26:45;100105.53;;;17.52;65.60
79269;BME280;68714;48.586;7.772;2023-05-09T00:29:10;100108.31;;;17.50;65.55
79269;BME280;68714;48.586;7.772;2023-05-09T00:31:36;100098.53;;;17.51;65.62
79269;BME280;68714;48.586;7.772;2023-05-09T00:34:01;100104.81;;;17.50;65.48
79269;BME280;68714;48.586;7.772;2023-05-09T00:36:27;100093.28;;;17.49;65.58
79269;BME280;68714;48.586;7.772;2023-05-09T00:38:52;100097.66;;;17.50;65.75
79269;BME280;68714;48.586;7.772;2023-05-09T00:41:17;100106.63;;;17.49;66.19
79269;BME280;68714;48.586;7.772;2023-05-09T00:43:43;100102.22;;;17.48;65.96
79269;BME280;68714;48.586;7.772;2023-05-09T00:46:08;100094.44;;;17.45;66.01
79269;BME280;68714;48.586;7.772;2023-05-09T00:48:34;100087.59;;;17.41;65.88
79269;BME280;68714;48.586;7.772;2023-05-09T00:51:00;100084.28;;;17.37;66.19
79269;BME280;68714;48.586;7.772;2023-05-09T00:53:25;100084.03;;;17.27;66.33
79269;BME280;68714;48.586;7.772;2023-05-09T00:55:52;100072.03;;;17.20;66.37
79269;BME280;68714;48.586;7.772;2023-05-09T00:58:19;100064.44;;;17.14;66.54
79269;BME280;68714;48.586;7.772;2023-05-09T01:00:45;100062.19;;;17.08;66.52
79269;BME280;68714;48.586;7.772;2023-05-09T01:03:11;100065.03;;;17.05;66.81
79269;BME280;68714;48.586;7.772;2023-05-09T01:08:36;100062.38;;;16.90;67.46
79269;BME280;68714;48.586;7.772;2023-05-09T01:11:09;100060.00;;;16.86;67.26
79269;BME280;68714;48.586;7.772;2023-05-09T01:16:55;100059.94;;;16.73;67.67
79269;BME280;68714;48.586;7.772;2023-05-09T01:19:38;100057.34;;;16.71;67.69
79269;BME280;68714;48.586;7.772;2023-05-09T01:22:11;100052.97;;;16.70;68.00
79269;BME280;68714;48.586;7.772;2023-05-09T01:25:00;100059.28;;;16.69;68.02
79269;BME280;68714;48.586;7.772;2023-05-09T01:27:47;100052.97;;;16.70;68.03
79269;BME280;68714;48.586;7.772;2023-05-09T01:30:15;100047.44;;;16.73;67.92
79269;BME280;68714;48.586;7.772;2023-05-09T01:32:42;100044.69;;;16.75;67.80
79269;BME280;68714;48.586;7.772;2023-05-09T01:35:10;100045.47;;;16.77;68.03
79269;BME280;68714;48.586;7.772;2023-05-09T01:37:41;100051.44;;;16.81;67.87
79269;BME280;68714;48.586;7.772;2023-05-09T01:40:14;100051.34;;;16.82;67.92
79269;BME280;68714;48.586;7.772;2023-05-09T01:43:03;100044.91;;;16.86;68.15
79269;BME280;68714;48.586;7.772;2023-05-09T01:45:30;100047.47;;;16.88;67.87
79269;BME280;68714;48.586;7.772;2023-05-09T01:47:57;100045.66;;;16.88;67.96
79269;BME280;68714;48.586;7.772;2023-05-09T01:50:23;100040.22;;;16.90;68.08
79269;BME280;68714;48.586;7.772;2023-05-09T01:52:52;100034.69;;;16.93;68.05
79269;BME280;68714;48.586;7.772;2023-05-09T01:55:20;100033.53;;;16.97;68.04
79269;BME280;68714;48.586;7.772;2023-05-09T01:57:50;100036.97;;;16.99;67.97
79269;BME280;68714;48.586;7.772;2023-05-09T02:00:17;100034.41;;;16.98;67.84
79269;BME280;68714;48.586;7.772;2023-05-09T02:02:43;100026.78;;;16.91;67.65
79269;BME280;68714;48.586;7.772;2023-05-09T02:05:10;100028.72;;;16.89;67.83
79269;BME280;68714;48.586;7.772;2023-05-09T02:07:36;100029.34;;;16.93;67.98
79269;BME280;68714;48.586;7.772;2023-05-09T02:10:04;100029.16;;;16.96;67.79
79269;BME280;68714;48.586;7.772;2023-05-09T02:12:31;100033.44;;;16.99;68.03
79269;BME280;68714;48.586;7.772;2023-05-09T02:14:56;100036.84;;;17.01;67.64
79269;BME280;68714;48.586;7.772;2023-05-09T02:17:22;100033.44;;;16.99;67.68
79269;BME280;68714;48.586;7.772;2023-05-09T02:19:47;100036.31;;;16.96;67.63
79269;BME280;68714;48.586;7.772;2023-05-09T02:22:13;100025.94;;;16.91;67.44
79269;BME280;68714;48.586;7.772;2023-05-09T02:24:41;100031.38;;;16.89;67.56
79269;BME280;68714;48.586;7.772;2023-05-09T02:27:07;100030.50;;;16.89;67.77
79269;BME280;68714;48.586;7.772;2023-05-09T02:29:40;100019.94;;;16.87;67.66
79269;BME280;68714;48.586;7.772;2023-05-09T02:32:28;100028.00;;;16.86;68.04
79269;BME280;68714;48.586;7.772;2023-05-09T02:34:54;100023.47;;;16.88;67.70
79269;BME280;68714;48.586;7.772;2023-05-09T02:37:22;100031.47;;;16.88;67.74
79269;BME280;68714;48.586;7.772;2023-05-09T02:39:48;100029.75;;;16.87;67.49
79269;BME280;68714;48.586;7.772;2023-05-09T02:42:18;100028.91;;;16.86;67.75
79269;BME280;68714;48.586;7.772;2023-05-09T02:44:44;100018.16;;;16.88;67.61
79269;BME280;68714;48.586;7.772;2023-05-09T02:47:10;100018.91;;;16.90;67.79
79269;BME280;68714;48.586;7.772;2023-05-09T02:49:35;100027.53;;;16.93;67.83
79269;BME280;68714;48.586;7.772;2023-05-09T02:52:01;100016.69;;;16.97;67.68
79269;BME280;68714;48.586;7.772;2023-05-09T02:54:26;100015.53;;;17.01;67.72
79269;BME280;68714;48.586;7.772;2023-05-09T02:56:52;100011.03;;;17.01;67.69
79269;BME280;68714;48.586;7.772;2023-05-09T02:59:18;100012.03;;;17.00;67.55
79269;BME280;68714;48.586;7.772;2023-05-09T03:01:44;100005.59;;;17.03;67.65
79269;BME280;68714;48.586;7.772;2023-05-09T03:04:10;100008.06;;;17.06;67.74
79269;BME280;68714;48.586;7.772;2023-05-09T03:06:36;99996.47;;;17.07;67.37
79269;BME280;68714;48.586;7.772;2023-05-09T03:09:01;100001.50;;;17.11;67.56
79269;BME280;68714;48.586;7.772;2023-05-09T03:11:27;99995.31;;;17.11;67.58
79269;BME280;68714;48.586;7.772;2023-05-09T03:13:53;99992.66;;;17.11;67.57
79269;BME280;68714;48.586;7.772;2023-05-09T03:16:19;99986.38;;;17.12;67.54
79269;BME280;68714;48.586;7.772;2023-05-09T03:18:44;100003.22;;;17.13;67.66
79269;BME280;68714;48.586;7.772;2023-05-09T03:21:10;99996.06;;;17.13;67.46
79269;BME280;68714;48.586;7.772;2023-05-09T03:23:35;100000.53;;;17.13;67.47
79269;BME280;68714;48.586;7.772;2023-05-09T03:26:01;100002.91;;;17.17;67.75
79269;BME280;68714;48.586;7.772;2023-05-09T03:28:27;100006.53;;;17.16;67.85
79269;BME280;68714;48.586;7.772;2023-05-09T03:30:52;100004.63;;;17.18;67.73
79269;BME280;68714;48.586;7.772;2023-05-09T03:33:17;100001.84;;;17.20;67.81
79269;BME280;68714;48.586;7.772;2023-05-09T03:35:43;100001.84;;;17.20;67.80
79269;BME280;68714;48.586;7.772;2023-05-09T03:38:08;99998.41;;;17.18;67.63
79269;BME280;68714;48.586;7.772;2023-05-09T03:40:34;100000.88;;;17.21;67.55
79269;BME280;68714;48.586;7.772;2023-05-09T03:42:59;99988.31;;;17.23;67.54
79269;BME280;68714;48.586;7.772;2023-05-09T03:45:25;99990.09;;;17.22;67.77
79269;BME280;68714;48.586;7.772;2023-05-09T03:47:50;99991.19;;;17.20;67.57
79269;BME280;68714;48.586;7.772;2023-05-09T03:50:16;99979.84;;;17.16;67.67
79269;BME280;68714;48.586;7.772;2023-05-09T03:52:41;99983.50;;;17.15;67.76
79269;BME280;68714;48.586;7.772;2023-05-09T03:55:07;99981.03;;;17.12;67.77
79269;BME280;68714;48.586;7.772;2023-05-09T03:57:33;99983.88;;;17.09;67.91
79269;BME280;68714;48.586;7.772;2023-05-09T03:59:59;99987.81;;;17.03;67.78
79269;BME280;68714;48.586;7.772;2023-05-09T04:02:25;99983.44;;;17.02;68.11
79269;BME280;68714;48.586;7.772;2023-05-09T04:04:50;99973.63;;;17.03;68.14
79269;BME280;68714;48.586;7.772;2023-05-09T04:07:17;99979.63;;;17.06;68.09
79269;BME280;68714;48.586;7.772;2023-05-09T04:09:43;99984.84;;;17.08;68.06
79269;BME280;68714;48.586;7.772;2023-05-09T04:12:08;99978.53;;;17.09;68.32
79269;BME280;68714;48.586;7.772;2023-05-09T04:14:34;99981.19;;;17.09;68.21
79269;BME280;68714;48.586;7.772;2023-05-09T04:16:59;99979.31;;;17.11;68.11
79269;BME280;68714;48.586;7.772;2023-05-09T04:19:24;99974.94;;;17.10;68.19
79269;BME280;68714;48.586;7.772;2023-05-09T04:21:50;99976.75;;;17.09;68.20
79269;BME280;68714;48.586;7.772;2023-05-09T04:24:15;99974.28;;;17.06;68.44
79269;BME280;68714;48.586;7.772;2023-05-09T04:26:41;99977.06;;;17.05;68.45
79269;BME280;68714;48.586;7.772;2023-05-09T04:29:06;99978.75;;;17.06;68.41
79269;BME280;68714;48.586;7.772;2023-05-09T04:31:32;99982.19;;;17.08;68.56
79269;BME280;68714;48.586;7.772;2023-05-09T04:33:57;99976.06;;;17.06;68.55
79269;BME280;68714;48.586;7.772;2023-05-09T04:36:23;99980.47;;;17.07;68.58
79269;BME280;68714;48.586;7.772;2023-05-09T04:38:48;99976.84;;;17.08;68.30
79269;BME280;68714;48.586;7.772;2023-05-09T04:41:14;99983.88;;;17.09;68.56
79269;BME280;68714;48.586;7.772;2023-05-09T04:43:40;99977.38;;;17.13;68.61
79269;BME280;68714;48.586;7.772;2023-05-09T04:46:05;99980.81;;;17.15;68.39
79269;BME280;68714;48.586;7.772;2023-05-09T04:48:33;99982.53;;;17.16;68.51
79269;BME280;68714;48.586;7.772;2023-05-09T04:50:59;99980.94;;;17.14;68.50
79269;BME280;68714;48.586;7.772;2023-05-09T04:53:25;99975.78;;;17.10;68.42
79269;BME280;68714;48.586;7.772;2023-05-09T04:55:51;99975.69;;;17.12;68.57
79269;BME280;68714;48.586;7.772;2023-05-09T04:58:17;99976.53;;;17.13;68.45
79269;BME280;68714;48.586;7.772;2023-05-09T05:00:42;99966.63;;;17.15;68.39
79269;BME280;68714;48.586;7.772;2023-05-09T05:03:08;99961.19;;;17.16;68.69
79269;BME280;68714;48.586;7.772;2023-05-09T05:05:33;99965.47;;;17.19;68.46
79269;BME280;68714;48.586;7.772;2023-05-09T05:07:59;99967.19;;;17.20;68.60
79269;BME280;68714;48.586;7.772;2023-05-09T05:10:24;99972.53;;;17.20;68.44
79269;BME280;68714;48.586;7.772;2023-05-09T05:12:50;99972.72;;;17.17;68.43
79269;BME280;68714;48.586;7.772;2023-05-09T05:15:15;99960.22;;;17.17;68.46
79269;BME280;68714;48.586;7.772;2023-05-09T05:17:43;99968.25;;;17.17;68.49
79269;BME280;68714;48.586;7.772;2023-05-09T05:20:09;99970.16;;;17.15;68.70
79269;BME280;68714;48.586;7.772;2023-05-09T05:22:35;99968.66;;;17.11;68.83
79269;BME280;68714;48.586;7.772;2023-05-09T05:25:01;99967.69;;;17.12;68.75
79269;BME280;68714;48.586;7.772;2023-05-09T05:27:28;99958.63;;;17.15;68.68
79269;BME280;68714;48.586;7.772;2023-05-09T05:29:54;99958.53;;;17.16;68.51
79269;BME280;68714;48.586;7.772;2023-05-09T05:32:19;99957.56;;;17.17;68.61
79269;BME280;68714;48.586;7.772;2023-05-09T05:34:45;99950.22;;;17.21;68.80
79269;BME280;68714;48.586;7.772;2023-05-09T05:37:10;99954.38;;;17.25;68.60
79269;BME280;68714;48.586;7.772;2023-05-09T05:39:36;99952.78;;;17.22;68.59
79269;BME280;68714;48.586;7.772;2023-05-09T05:42:01;99951.50;;;17.15;68.55
79269;BME280;68714;48.586;7.772;2023-05-09T05:44:27;99944.66;;;17.11;68.80
79269;BME280;68714;48.586;7.772;2023-05-09T05:46:52;99945.50;;;17.11;68.72
79269;BME280;68714;48.586;7.772;2023-05-09T05:49:18;99939.09;;;17.14;68.85
79269;BME280;68714;48.586;7.772;2023-05-09T05:51:43;99941.47;;;17.19;68.98
79269;BME280;68714;48.586;7.772;2023-05-09T05:54:09;99938.28;;;17.26;68.64
79269;BME280;68714;48.586;7.772;2023-05-09T05:56:35;99941.47;;;17.32;68.72
79269;BME280;68714;48.586;7.772;2023-05-09T05:59:00;99948.97;;;17.39;68.74
79269;BME280;68714;48.586;7.772;2023-05-09T06:01:26;99941.31;;;17.47;68.63
79269;BME280;68714;48.586;7.772;2023-05-09T06:03:51;99938.00;;;17.57;68.37
79269;BME280;68714;48.586;7.772;2023-05-09T06:06:20;99947.94;;;17.68;68.17
79269;BME280;68714;48.586;7.772;2023-05-09T06:08:47;99946.00;;;17.70;67.61
79269;BME280;68714;48.586;7.772;2023-05-09T06:11:15;99944.19;;;17.70;67.84
79269;BME280;68714;48.586;7.772;2023-05-09T06:13:41;99940.66;;;17.70;67.93
79269;BME280;68714;48.586;7.772;2023-05-09T06:16:07;99930.63;;;17.73;67.64
79269;BME280;68714;48.586;7.772;2023-05-09T06:18:36;99937.34;;;17.79;67.73
79269;BME280;68714;48.586;7.772;2023-05-09T06:21:04;99930.00;;;17.82;67.55
79269;BME280;68714;48.586;7.772;2023-05-09T06:23:29;99930.31;;;17.78;67.27
79269;BME280;68714;48.586;7.772;2023-05-09T06:25:55;99925.28;;;17.73;67.27
79269;BME280;68714;48.586;7.772;2023-05-09T06:28:20;99927.44;;;17.68;67.39
79269;BME280;68714;48.586;7.772;2023-05-09T06:30:46;99916.97;;;17.65;67.34
79269;BME280;68714;48.586;7.772;2023-05-09T06:33:11;99925.72;;;17.67;67.41
79269;BME280;68714;48.586;7.772;2023-05-09T06:35:38;99928.47;;;17.65;67.43
79269;BME280;68714;48.586;7.772;2023-05-09T06:38:07;99920.47;;;17.65;67.56
79269;BME280;68714;48.586;7.772;2023-05-09T06:40:33;99917.50;;;17.70;67.54
79269;BME280;68714;48.586;7.772;2023-05-09T06:43:01;99907.47;;;17.74;67.44
79269;BME280;68714;48.586;7.772;2023-05-09T06:45:27;99906.94;;;17.81;67.38
79269;BME280;68714;48.586;7.772;2023-05-09T06:47:52;99902.00;;;17.88;67.25
79269;BME280;68714;48.586;7.772;2023-05-09T06:50:18;99906.09;;;17.94;67.22
79269;BME280;68714;48.586;7.772;2023-05-09T06:52:43;99898.81;;;17.96;66.95
79269;BME280;68714;48.586;7.772;2023-05-09T06:55:09;99892.41;;;17.98;67.01
79269;BME280;68714;48.586;7.772;2023-05-09T06:57:35;99895.72;;;18.02;66.85
79269;BME280;68714;48.586;7.772;2023-05-09T07:00:00;99878.94;;;18.00;66.90
79269;BME280;68714;48.586;7.772;2023-05-09T07:02:26;99876.56;;;18.08;66.86
79269;BME280;68714;48.586;7.772;2023-05-09T07:04:51;99877.41;;;18.22;66.92
79269;BME280;68714;48.586;7.772;2023-05-09T07:07:17;99875.31;;;18.38;66.84
79269;BME280;68714;48.586;7.772;2023-05-09T07:09:42;99873.72;;;18.60;66.43
79269;BME280;68714;48.586;7.772;2023-05-09T07:12:08;99871.41;;;18.79;66.17
79269;BME280;68714;48.586;7.772;2023-05-09T07:14:33;99871.00;;;18.97;65.70
79269;BME280;68714;48.586;7.772;2023-05-09T07:16:58;99870.06;;;19.09;65.30
79269;BME280;68714;48.586;7.772;2023-05-09T07:19:24;99861.56;;;19.15;65.14
79269;BME280;68714;48.586;7.772;2023-05-09T07:21:49;99858.56;;;19.31;64.78
79269;BME280;68714;48.586;7.772;2023-05-09T07:24:15;99856.50;;;19.35;64.10
79269;BME280;68714;48.586;7.772;2023-05-09T07:26:40;99849.56;;;19.32;63.80
79269;BME280;68714;48.586;7.772;2023-05-09T07:29:06;99845.78;;;19.35;64.07
79269;BME280;68714;48.586;7.772;2023-05-09T07:31:32;99839.97;;;19.41;63.90
79269;BME280;68714;48.586;7.772;2023-05-09T07:33:57;99832.16;;;19.49;63.80
79269;BME280;68714;48.586;7.772;2023-05-09T07:36:23;99830.00;;;19.54;63.52
79269;BME280;68714;48.586;7.772;2023-05-09T07:38:48;99830.47;;;19.59;63.63
79269;BME280;68714;48.586;7.772;2023-05-09T07:41:16;99830.84;;;19.66;63.33
79269;BME280;68714;48.586;7.772;2023-05-09T07:43:42;99833.25;;;19.69;63.15
79269;BME280;68714;48.586;7.772;2023-05-09T07:46:07;99825.63;;;19.76;63.27
79269;BME280;68714;48.586;7.772;2023-05-09T07:48:32;99823.06;;;19.86;63.00
79269;BME280;68714;48.586;7.772;2023-05-09T07:50:58;99812.81;;;20.02;62.98
79269;BME280;68714;48.586;7.772;2023-05-09T07:53:23;99815.59;;;20.23;62.74
79269;BME280;68714;48.586;7.772;2023-05-09T07:55:49;99806.34;;;20.48;62.62
79269;BME280;68714;48.586;7.772;2023-05-09T07:58:17;99813.56;;;20.80;62.11
79269;BME280;68714;48.586;7.772;2023-05-09T08:00:43;99807.41;;;21.11;61.77
79269;BME280;68714;48.586;7.772;2023-05-09T08:03:09;99802.06;;;21.42;60.97
79269;BME280;68714;48.586;7.772;2023-05-09T08:05:35;99790.63;;;21.70;60.81
79269;BME280;68714;48.586;7.772;2023-05-09T08:08:00;99790.84;;;21.98;60.19
79269;BME280;68714;48.586;7.772;2023-05-09T08:10:26;99783.50;;;22.20;59.39
79269;BME280;68714;48.586;7.772;2023-05-09T08:12:55;99775.03;;;22.24;59.09
79269;BME280;68714;48.586;7.772;2023-05-09T08:15:21;99777.56;;;22.26;58.33
79269;BME280;68714;48.586;7.772;2023-05-09T08:17:46;99777.31;;;22.19;58.51
79269;BME280;68714;48.586;7.772;2023-05-09T08:20:12;99774.31;;;22.13;58.07
79269;BME280;68714;48.586;7.772;2023-05-09T08:22:38;99772.03;;;22.08;58.47
79269;BME280;68714;48.586;7.772;2023-05-09T08:25:07;99766.78;;;22.06;58.42
79269;BME280;68714;48.586;7.772;2023-05-09T08:27:32;99771.47;;;22.04;58.21
79269;BME280;68714;48.586;7.772;2023-05-09T08:29:59;99765.78;;;21.88;57.80
79269;BME280;68714;48.586;7.772;2023-05-09T08:32:26;99762.59;;;21.63;58.12
79269;BME280;68714;48.586;7.772;2023-05-09T08:34:51;99760.75;;;21.33;58.39
79269;BME280;68714;48.586;7.772;2023-05-09T08:37:17;99749.75;;;21.05;58.58
79269;BME280;68714;48.586;7.772;2023-05-09T08:39:42;99746.13;;;20.85;58.77
79269;BME280;68714;48.586;7.772;2023-05-09T08:42:08;99753.06;;;20.66;58.97
79269;BME280;68714;48.586;7.772;2023-05-09T08:44:34;99752.59;;;20.50;59.05
79269;BME280;68714;48.586;7.772;2023-05-09T08:47:01;99747.19;;;20.40;59.22
79269;BME280;68714;48.586;7.772;2023-05-09T08:49:28;99752.56;;;20.29;59.35
79269;BME280;68714;48.586;7.772;2023-05-09T08:51:54;99745.31;;;20.20;59.42
79269;BME280;68714;48.586;7.772;2023-05-09T08:54:22;99742.16;;;20.14;59.45
79269;BME280;68714;48.586;7.772;2023-05-09T08:56:48;99750.72;;;20.08;59.40
79269;BME280;68714;48.586;7.772;2023-05-09T08:59:17;99740.13;;;20.07;59.37
79269;BME280;68714;48.586;7.772;2023-05-09T09:01:43;99742.81;;;20.07;59.35
79269;BME280;68714;48.586;7.772;2023-05-09T09:04:08;99739.03;;;20.09;59.73
79269;BME280;68714;48.586;7.772;2023-05-09T09:06:36;99736.28;;;20.21;59.61
79269;BME280;68714;48.586;7.772;2023-05-09T09:09:06;99737.69;;;20.36;59.87
79269;BME280;68714;48.586;7.772;2023-05-09T09:11:34;99734.97;;;20.47;59.40
79269;BME280;68714;48.586;7.772;2023-05-09T09:14:24;99728.09;;;20.55;59.24
79269;BME280;68714;48.586;7.772;2023-05-09T09:16:53;99716.97;;;20.71;59.18
79269;BME280;68714;48.586;7.772;2023-05-09T09:19:21;99718.88;;;20.90;59.00
79269;BME280;68714;48.586;7.772;2023-05-09T09:21:52;99697.06;;;21.04;58.96
79269;BME280;68714;48.586;7.772;2023-05-09T09:24:21;99699.84;;;21.24;58.76
79269;BME280;68714;48.586;7.772;2023-05-09T09:26:48;99700.63;;;21.45;58.40
79269;BME280;68714;48.586;7.772;2023-05-09T09:29:15;99694.88;;;21.50;57.67
79269;BME280;68714;48.586;7.772;2023-05-09T09:31:44;99696.03;;;21.57;57.63
79269;BME280;68714;48.586;7.772;2023-05-09T09:34:11;99681.34;;;21.61;56.07
79269;BME280;68714;48.586;7.772;2023-05-09T09:36:36;99689.56;;;21.89;57.54
79269;BME280;68714;48.586;7.772;2023-05-09T09:39:03;99677.97;;;22.08;57.25
79269;BME280;68714;48.586;7.772;2023-05-09T09:41:34;99679.53;;;22.30;56.70
79269;BME280;68714;48.586;7.772;2023-05-09T09:44:07;99664.69;;;22.46;56.50
79269;BME280;68714;48.586;7.772;2023-05-09T09:46:52;99669.59;;;22.60;55.39
79269;BME280;68714;48.586;7.772;2023-05-09T09:49:22;99653.75;;;22.57;55.72
79269;BME280;68714;48.586;7.772;2023-05-09T09:51:52;99645.69;;;22.57;55.40
79269;BME280;68714;48.586;7.772;2023-05-09T09:54:18;99647.53;;;22.56;55.62
79269;BME280;68714;48.586;7.772;2023-05-09T09:56:46;99649.25;;;22.57;55.23
79269;BME280;68714;48.586;7.772;2023-05-09T09:59:13;99640.84;;;22.70;55.10
79269;BME280;68714;48.586;7.772;2023-05-09T10:04:28;99631.22;;;23.05;54.17
79269;BME280;68714;48.586;7.772;2023-05-09T10:07:05;99625.53;;;23.08;53.94
79269;BME280;68714;48.586;7.772;2023-05-09T10:09:35;99625.97;;;23.13;54.22
79269;BME280;68714;48.586;7.772;2023-05-09T10:12:07;99618.00;;;23.22;53.96
79269;BME280;68714;48.586;7.772;2023-05-09T10:14:35;99614.16;;;23.24;53.95
79269;BME280;68714;48.586;7.772;2023-05-09T10:17:03;99611.75;;;23.21;53.00
79269;BME280;68714;48.586;7.772;2023-05-09T10:19:30;99605.00;;;23.07;53.23
79269;BME280;68714;48.586;7.772;2023-05-09T10:22:03;99602.25;;;22.89;53.53
79269;BME280;68714;48.586;7.772;2023-05-09T10:27:09;99597.28;;;22.67;53.12
79269;BME280;68714;48.586;7.772;2023-05-09T10:30:07;99590.91;;;22.58;52.72
79269;BME280;68714;48.586;7.772;2023-05-09T10:32:42;99586.53;;;22.57;52.10
79269;BME280;68714;48.586;7.772;2023-05-09T10:35:12;99585.78;;;22.74;53.57
79269;BME280;68714;48.586;7.772;2023-05-09T10:37:41;99581.88;;;22.87;53.58
79269;BME280;68714;48.586;7.772;2023-05-09T10:40:07;99573.22;;;22.93;53.23
79269;BME280;68714;48.586;7.772;2023-05-09T10:42:33;99576.41;;;23.06;53.02
79269;BME280;68714;48.586;7.772;2023-05-09T10:45:00;99573.69;;;23.16;52.57
79269;BME280;68714;48.586;7.772;2023-05-09T10:47:32;99567.47;;;23.15;52.29
79269;BME280;68714;48.586;7.772;2023-05-09T10:49:58;99567.78;;;23.12;52.33
79269;BME280;68714;48.586;7.772;2023-05-09T10:52:31;99566.06;;;23.11;52.58
79269;BME280;68714;48.586;7.772;2023-05-09T10:55:17;99556.25;;;23.20;51.59
79269;BME280;68714;48.586;7.772;2023-05-09T10:57:52;99547.78;;;23.33;52.26
79269;BME280;68714;48.586;7.772;2023-05-09T11:00:23;99548.88;;;23.40;51.93
79269;BME280;68714;48.586;7.772;2023-05-09T11:03:07;99535.16;;;23.33;51.00
79269;BME280;68714;48.586;7.772;2023-05-09T11:05:40;99529.69;;;23.25;51.65
79269;BME280;68714;48.586;7.772;2023-05-09T11:10:45;99522.88;;;23.31;51.82
79269;BME280;68714;48.586;7.772;2023-05-09T11:13:10;99512.09;;;23.31;51.87
79269;BME280;68714;48.586;7.772;2023-05-09T11:15:49;99514.19;;;23.37;50.64
79269;BME280;68714;48.586;7.772;2023-05-09T11:18:15;99510.56;;;23.46;51.32
79269;BME280;68714;48.586;7.772;2023-05-09T11:20:44;99492.44;;;23.57;50.99
79269;BME280;68714;48.586;7.772;2023-05-09T11:23:15;99494.28;;;23.74;50.74
79269;BME280;68714;48.586;7.772;2023-05-09T11:25:44;99496.50;;;23.79;50.80
79269;BME280;68714;48.586;7.772;2023-05-09T11:28:11;99494.91;;;23.68;48.28
79269;BME280;68714;48.586;7.772;2023-05-09T11:30:50;99492.06;;;23.88;50.35
79269;BME280;68714;48.586;7.772;2023-05-09T11:33:23;99486.88;;;23.94;49.95
79269;BME280;68714;48.586;7.772;2023-05-09T11:38:41;99486.97;;;24.11;49.41
79269;BME280;68714;48.586;7.772;2023-05-09T11:41:07;99473.81;;;24.08;49.20
79269;BME280;68714;48.586;7.772;2023-05-09T11:43:35;99466.09;;;24.13;49.38
79269;BME280;68714;48.586;7.772;2023-05-09T11:46:02;99463.97;;;24.25;49.35
79269;BME280;68714;48.586;7.772;2023-05-09T11:48:27;99456.38;;;24.28;48.72
79269;BME280;68714;48.586;7.772;2023-05-09T11:50:53;99461.63;;;24.30;48.57
79269;BME280;68714;48.586;7.772;2023-05-09T11:53:18;99454.81;;;24.17;46.36
79269;BME280;68714;48.586;7.772;2023-05-09T11:55:44;99443.59;;;24.65;46.01
79269;BME280;68714;48.586;7.772;2023-05-09T11:58:09;99439.78;;;24.49;47.54
79269;BME280;68714;48.586;7.772;2023-05-09T12:00:43;99429.69;;;24.51;45.86
79269;BME280;68714;48.586;7.772;2023-05-09T12:03:08;99431.19;;;24.46;47.08
79269;BME280;68714;48.586;7.772;2023-05-09T12:05:35;99427.28;;;24.40;47.49
79269;BME280;68714;48.586;7.772;2023-05-09T12:08:05;99429.00;;;24.41;47.30
79269;BME280;68714;48.586;7.772;2023-05-09T12:10:31;99416.34;;;24.42;47.53
79269;BME280;68714;48.586;7.772;2023-05-09T12:12:56;99419.88;;;24.42;47.41
79269;BME280;68714;48.586;7.772;2023-05-09T12:15:22;99406.94;;;24.46;47.33
79269;BME280;68714;48.586;7.772;2023-05-09T12:18:03;99409.47;;;24.47;47.32
79269;BME280;68714;48.586;7.772;2023-05-09T12:20:41;99407.47;;;24.57;46.51
79269;BME280;68714;48.586;7.772;2023-05-09T12:23:08;99405.91;;;24.47;44.98
79269;BME280;68714;48.586;7.772;2023-05-09T12:25:34;99401.53;;;24.54;47.49
79269;BME280;68714;48.586;7.772;2023-05-09T12:28:00;99397.22;;;24.69;47.50
79269;BME280;68714;48.586;7.772;2023-05-09T12:30:26;99381.91;;;24.78;46.89
79269;BME280;68714;48.586;7.772;2023-05-09T12:32:51;99379.88;;;24.80;46.62
79269;BME280;68714;48.586;7.772;2023-05-09T12:35:19;99381.56;;;24.81;46.69
79269;BME280;68714;48.586;7.772;2023-05-09T12:37:57;99383.25;;;24.74;46.66
79269;BME280;68714;48.586;7.772;2023-05-09T12:40:23;99378.19;;;24.71;46.78
79269;BME280;68714;48.586;7.772;2023-05-09T12:42:49;99365.00;;;24.60;46.68
79269;BME280;68714;48.586;7.772;2023-05-09T12:45:18;99364.13;;;24.51;46.97
79269;BME280;68714;48.586;7.772;2023-05-09T12:47:44;99361.25;;;24.52;47.22
79269;BME280;68714;48.586;7.772;2023-05-09T12:50:10;99363.63;;;24.55;47.28
79269;BME280;68714;48.586;7.772;2023-05-09T12:52:40;99357.41;;;24.63;47.07
79269;BME280;68714;48.586;7.772;2023-05-09T12:55:08;99363.19;;;24.77;46.88
79269;BME280;68714;48.586;7.772;2023-05-09T12:57:36;99355.25;;;24.75;46.55
79269;BME280;68714;48.586;7.772;2023-05-09T13:00:04;99352.03;;;24.71;46.77
79269;BME280;68714;48.586;7.772;2023-05-09T13:02:38;99345.28;;;24.67;46.49
79269;BME280;68714;48.586;7.772;2023-05-09T13:05:17;99346.78;;;24.62;46.22
79269;BME280;68714;48.586;7.772;2023-05-09T13:07:46;99342.06;;;24.64;46.64
79269;BME280;68714;48.586;7.772;2023-05-09T13:10:13;99342.22;;;24.62;46.75
79269;BME280;68714;48.586;7.772;2023-05-09T13:12:39;99335.34;;;24.60;46.42
79269;BME280;68714;48.586;7.772;2023-05-09T13:15:09;99335.34;;;24.60;46.27